createdAt,value
2018-06-27T00:00:27.100Z,102300.90
2018-06-27T00:02:54.978Z,102308.42
2018-06-27T00:05:22.655Z,102305.19
2018-06-27T00:07:50.282Z,102314.05
2018-06-27T00:10:17.999Z,102311.66
2018-06-27T00:12:45.724Z,102316.79
2018-06-27T00:15:13.391Z,102323.34
2018-06-27T00:17:41.160Z,102325.78
2018-06-27T00:20:09.061Z,102330.45
2018-06-27T00:22:36.725Z,102333.44
2018-06-27T00:25:04.559Z,102344.83
2018-06-27T00:27:32.443Z,102342.44
2018-06-27T00:30:00.068Z,102350.75
2018-06-27T00:32:27.912Z,102348.28
2018-06-27T00:34:55.813Z,102352.95
2018-06-27T00:37:24.037Z,102351.90
2018-06-27T00:39:51.823Z,102352.61
2018-06-27T00:42:19.688Z,102356.94
2018-06-27T00:44:47.305Z,102353.62
2018-06-27T00:47:15.205Z,102356.98
2018-06-27T00:49:43.056Z,102361.27
2018-06-27T00:52:10.663Z,102359.28
2018-06-27T00:54:38.439Z,102362.19
2018-06-27T00:57:06.308Z,102364.70
2018-06-27T00:59:33.927Z,102366.77
2018-06-27T01:02:01.839Z,102368.87
2018-06-27T01:04:29.636Z,102369.58
2018-06-27T01:06:57.301Z,102370.29
2018-06-27T01:09:25.285Z,102373.36
2018-06-27T01:11:53.026Z,102372.72
2018-06-27T01:14:20.663Z,102298.66
2018-06-27T01:16:48.483Z,102387.73
2018-06-27T01:19:16.255Z,102387.19
2018-06-27T01:21:43.975Z,102385.75
2018-06-27T01:24:11.751Z,102391.60
2018-06-27T01:26:39.440Z,102396.52
2018-06-27T01:29:07.057Z,102399.21
2018-06-27T01:31:35.208Z,102390.84
2018-06-27T01:34:03.047Z,102401.61
2018-06-27T01:36:30.752Z,102406.58
2018-06-27T01:38:58.582Z,102406.28
2018-06-27T01:41:26.318Z,102409.06
2018-06-27T01:43:54.056Z,102402.97
2018-06-27T01:46:21.904Z,102409.23
2018-06-27T01:48:49.763Z,102405.28
2018-06-27T01:51:17.717Z,102414.70
2018-06-27T01:53:45.466Z,102417.86
2018-06-27T01:56:19.868Z,102413.02
2018-06-27T01:58:47.678Z,102407.64
2018-06-27T02:01:15.245Z,102419.75
2018-06-27T02:03:43.115Z,102422.06
2018-06-27T02:06:10.992Z,102431.86
2018-06-27T02:08:38.634Z,102421.18
2018-06-27T02:11:06.528Z,102423.95
2018-06-27T02:13:34.273Z,102427.14
2018-06-27T02:16:02.177Z,102432.99
2018-06-27T02:18:29.968Z,102428.74
2018-06-27T02:20:57.805Z,102438.62
2018-06-27T02:23:25.371Z,102442.66
2018-06-27T02:25:53.442Z,102438.62
2018-06-27T02:30:53.409Z,102433.33
2018-06-27T02:33:26.582Z,102442.83
2018-06-27T02:35:54.722Z,102443.70
2018-06-27T02:38:22.300Z,102463.47
2018-06-27T02:40:50.667Z,102460.86
2018-06-27T02:43:18.773Z,102467.21
2018-06-27T02:45:46.371Z,102467.29
2018-06-27T02:48:14.305Z,102469.10
2018-06-27T02:50:42.278Z,102466.03
2018-06-27T02:53:10.102Z,102478.60
2018-06-27T02:55:37.746Z,102479.09
2018-06-27T02:58:05.946Z,102491.29
2018-06-27T03:00:33.543Z,102489.14
2018-06-27T03:03:01.145Z,102492.84
2018-06-27T03:05:29.447Z,102497.04
2018-06-27T03:07:57.043Z,102484.63
2018-06-27T03:10:24.653Z,102496.73
2018-06-27T03:12:52.629Z,102498.55
2018-06-27T03:15:20.289Z,102496.90
2018-06-27T03:17:48.045Z,102495.64
2018-06-27T03:20:16.067Z,102503.70
2018-06-27T03:22:44.132Z,102502.44
2018-06-27T03:25:11.839Z,102514.23
2018-06-27T03:27:40.675Z,102511.13
2018-06-27T03:30:08.412Z,102503.56
2018-06-27T03:32:36.123Z,102512.55
2018-06-27T03:35:04.316Z,102516.20
2018-06-27T03:37:32.454Z,102530.04
2018-06-27T03:40:00.256Z,102528.31
2018-06-27T03:42:28.174Z,102529.58
2018-06-27T03:44:55.857Z,102524.66
2018-06-27T03:47:23.552Z,102530.45
2018-06-27T03:49:52.436Z,102531.30
2018-06-27T03:52:20.123Z,102541.22
2018-06-27T03:54:48.173Z,102538.02
2018-06-27T03:57:16.228Z,102548.78
2018-06-27T03:59:43.903Z,102560.81
2018-06-27T04:02:11.733Z,102552.36
2018-06-27T04:04:39.938Z,102545.25
2018-06-27T04:07:07.595Z,102552.44
2018-06-27T04:09:35.262Z,102554.66
2018-06-27T04:12:04.094Z,102556.39
2018-06-27T04:14:31.780Z,102554.66
2018-06-27T04:16:59.490Z,102546.52
2018-06-27T04:19:27.340Z,102548.16
2018-06-27T04:21:54.910Z,102557.03
2018-06-27T04:24:22.525Z,102560.19
2018-06-27T04:26:50.393Z,102551.23
2018-06-27T04:29:18.226Z,102551.81
2018-06-27T04:31:45.840Z,102546.44
2018-06-27T04:34:13.716Z,102551.81
2018-06-27T04:36:41.425Z,102558.13
2018-06-27T04:39:10.327Z,102556.62
2018-06-27T04:41:38.594Z,102583.94
2018-06-27T04:44:06.267Z,102558.77
2018-06-27T04:46:34.339Z,102572.22
2018-06-27T04:49:02.817Z,102560.03
2018-06-27T04:51:30.444Z,102579.25
2018-06-27T04:53:58.117Z,102595.31
2018-06-27T04:56:26.905Z,102588.12
2018-06-27T04:58:55.358Z,102518.31
2018-06-27T05:01:22.976Z,102573.79
2018-06-27T05:03:51.101Z,102574.20
2018-06-27T05:06:19.089Z,102574.20
2018-06-27T05:08:46.734Z,102581.23
2018-06-27T05:11:15.703Z,102580.77
2018-06-27T05:13:43.334Z,102585.66
2018-06-27T05:16:11.020Z,102590.19
2018-06-27T05:18:38.772Z,102599.61
2018-06-27T05:21:07.035Z,102595.58
2018-06-27T05:23:34.713Z,102594.23
2018-06-27T05:26:02.670Z,102598.65
2018-06-27T05:28:30.448Z,102590.58
2018-06-27T05:30:58.127Z,102591.92
2018-06-27T05:33:26.060Z,102596.42
2018-06-27T05:35:53.666Z,102600.88
2018-06-27T05:38:21.259Z,102597.30
2018-06-27T05:40:49.224Z,102604.41
2018-06-27T05:43:16.846Z,102613.28
2018-06-27T05:45:44.722Z,102619.09
2018-06-27T05:48:12.699Z,102622.55
2018-06-27T05:50:40.356Z,102613.63
2018-06-27T05:53:07.975Z,102613.55
2018-06-27T05:55:36.020Z,102626.05
2018-06-27T05:58:03.876Z,102615.28
2018-06-27T06:00:31.530Z,102620.20
2018-06-27T06:02:59.787Z,102618.44
2018-06-27T06:05:27.395Z,102621.55
2018-06-27T06:07:56.000Z,102620.20
2018-06-27T06:10:24.803Z,102615.66
2018-06-27T06:12:52.482Z,102619.16
2018-06-27T06:15:20.144Z,102615.51
2018-06-27T06:17:48.355Z,102604.20
2018-06-27T06:20:16.057Z,102600.39
2018-06-27T06:22:43.665Z,102602.92
2018-06-27T06:25:11.809Z,102598.89
2018-06-27T06:27:39.455Z,102608.64
2018-06-27T06:30:07.184Z,102614.33
2018-06-27T06:32:35.213Z,102618.59
2018-06-27T06:35:02.889Z,102606.73
2018-06-27T06:37:30.699Z,102609.65
2018-06-27T06:39:58.809Z,102610.78
2018-06-27T06:42:26.451Z,102604.78
2018-06-27T06:44:54.029Z,102608.57
2018-06-27T06:47:21.888Z,102609.30
2018-06-27T06:49:49.603Z,102611.82
2018-06-27T06:52:17.309Z,102620.12
2018-06-27T06:54:45.493Z,102620.75
2018-06-27T06:57:13.266Z,102624.16
2018-06-27T06:59:41.115Z,102613.61
2018-06-27T07:02:08.966Z,102630.87
2018-06-27T07:04:36.618Z,102624.27
2018-06-27T07:07:04.323Z,102627.21
2018-06-27T07:09:32.269Z,102622.03
2018-06-27T07:11:59.890Z,102633.03
2018-06-27T07:14:27.517Z,102633.66
2018-06-27T07:16:55.421Z,102633.91
2018-06-27T07:19:23.121Z,102620.17
2018-06-27T07:21:50.755Z,102619.92
2018-06-27T07:24:18.627Z,102618.78
2018-06-27T07:26:46.271Z,102631.53
2018-06-27T07:29:14.070Z,102628.09
2018-06-27T07:31:41.845Z,102629.59
2018-06-27T07:34:09.583Z,102624.41
2018-06-27T07:36:37.227Z,102628.63
2018-06-27T07:39:07.889Z,102628.84
2018-06-27T07:41:35.731Z,102637.93
2018-06-27T07:44:03.341Z,102629.11
2018-06-27T07:46:31.382Z,102632.34
2018-06-27T07:48:59.026Z,102635.70
2018-06-27T07:51:26.677Z,102637.29
2018-06-27T07:53:54.962Z,102640.19
2018-06-27T07:56:22.667Z,102648.90
2018-06-27T07:58:50.321Z,102649.09
2018-06-27T08:01:18.683Z,102655.58
2018-06-27T08:03:46.345Z,102651.27
2018-06-27T08:06:14.212Z,102648.80
2018-06-27T08:08:42.214Z,102648.61
2018-06-27T08:11:10.901Z,102646.58
2018-06-27T08:13:38.615Z,102659.43
2018-06-27T08:16:06.773Z,102665.12
2018-06-27T08:18:38.589Z,102659.45
2018-06-27T08:21:07.151Z,102668.16
2018-06-27T08:23:35.091Z,102674.25
2018-06-27T08:26:02.795Z,102674.45
2018-06-27T08:28:30.375Z,102669.27
2018-06-27T08:30:58.307Z,102670.38
2018-06-27T08:33:25.990Z,102675.89
2018-06-27T08:35:53.612Z,102672.44
2018-06-27T08:38:21.623Z,102654.09
2018-06-27T08:40:49.511Z,102655.17
2018-06-27T08:43:17.053Z,102658.88
2018-06-27T08:45:44.847Z,102660.33
2018-06-27T08:48:12.767Z,102669.88
2018-06-27T08:50:40.353Z,102662.36
2018-06-27T08:53:08.658Z,102655.80
2018-06-27T08:55:38.800Z,102654.06
2018-06-27T08:58:06.457Z,102667.60
2018-06-27T09:00:34.340Z,102664.70
2018-06-27T09:03:02.186Z,102661.03
2018-06-27T09:05:29.792Z,102657.19
2018-06-27T09:07:58.351Z,102655.04
2018-06-27T09:10:26.269Z,102666.34
2018-06-27T09:12:53.904Z,102664.61
2018-06-27T09:15:21.912Z,102671.52
2018-06-27T09:17:50.787Z,102675.66
2018-06-27T09:20:18.511Z,102682.39
2018-06-27T09:22:46.657Z,102675.23
2018-06-27T09:25:14.443Z,102680.05
2018-06-27T09:27:42.097Z,102671.47
2018-06-27T09:30:09.842Z,102663.80
2018-06-27T09:32:37.855Z,102678.01
2018-06-27T09:35:05.484Z,102674.53
2018-06-27T09:37:33.283Z,102665.59
2018-06-27T09:40:01.374Z,102665.12
2018-06-27T09:42:29.051Z,102673.20
2018-06-27T09:44:56.910Z,102666.02
2018-06-27T09:47:24.916Z,102668.05
2018-06-27T09:49:53.088Z,102668.97
2018-06-27T09:52:20.894Z,102574.59
2018-06-27T09:54:48.747Z,102669.94
2018-06-27T09:57:17.212Z,102661.52
2018-06-27T09:59:44.972Z,102662.27
2018-06-27T10:02:12.934Z,102656.66
2018-06-27T10:04:40.903Z,102649.89
2018-06-27T10:07:09.021Z,102666.14
2018-06-27T10:09:36.847Z,102669.78
2018-06-27T10:12:04.525Z,102674.13
2018-06-27T10:14:32.434Z,102664.22
2018-06-27T10:17:00.371Z,102667.83
2018-06-27T10:19:27.993Z,102661.45
2018-06-27T10:21:55.734Z,102659.88
2018-06-27T10:24:23.602Z,102656.67
2018-06-27T10:26:51.306Z,102645.42
2018-06-27T10:29:19.056Z,102648.03
2018-06-27T10:31:46.983Z,102643.17
2018-06-27T10:34:14.634Z,102642.80
2018-06-27T10:36:42.438Z,102648.58
2018-06-27T10:39:10.995Z,102639.15
2018-06-27T10:41:39.994Z,102633.63
2018-06-27T10:44:07.821Z,102639.73
2018-06-27T10:46:36.098Z,102637.31
2018-06-27T10:49:05.177Z,102643.47
2018-06-27T10:51:32.997Z,102634.65
2018-06-27T10:54:01.124Z,102638.59
2018-06-27T10:56:28.907Z,102630.58
2018-06-27T10:58:56.694Z,102641.20
2018-06-27T11:01:24.699Z,102628.73
2018-06-27T11:03:52.337Z,102598.08
2018-06-27T11:06:20.092Z,102636.70
2018-06-27T11:08:48.194Z,102645.36
2018-06-27T11:11:15.850Z,102635.75
2018-06-27T11:13:43.601Z,102637.33
2018-06-27T11:16:11.401Z,102630.50
2018-06-27T11:18:39.064Z,102637.33
2018-06-27T11:21:06.764Z,102634.84
2018-06-27T11:23:35.216Z,102637.16
2018-06-27T11:26:02.877Z,102640.11
2018-06-27T11:28:30.828Z,102638.89
2018-06-27T11:30:58.648Z,102638.33
2018-06-27T11:33:26.314Z,102622.75
2018-06-27T11:35:53.974Z,102629.13
2018-06-27T11:38:21.855Z,102633.25
2018-06-27T11:40:49.517Z,102628.94
2018-06-27T11:43:17.656Z,102636.56
2018-06-27T11:45:45.477Z,102631.41
2018-06-27T11:48:13.247Z,102636.48
2018-06-27T11:50:40.983Z,102636.25
2018-06-27T11:53:09.069Z,102633.39
2018-06-27T11:55:36.760Z,102628.91
2018-06-27T11:58:05.260Z,102622.75
2018-06-27T12:00:32.998Z,102618.41
2018-06-27T12:03:00.649Z,102616.95
2018-06-27T12:05:28.374Z,102609.02
2018-06-27T12:07:56.158Z,102617.52
2018-06-27T12:10:23.773Z,102618.91
2018-06-27T12:12:51.576Z,102615.93
2018-06-27T12:15:19.634Z,102618.72
2018-06-27T12:17:47.249Z,102622.76
2018-06-27T12:20:15.433Z,102618.55
2018-06-27T12:22:43.317Z,102624.65
2018-06-27T12:25:10.933Z,102625.42
2018-06-27T12:27:38.661Z,102628.08
2018-06-27T12:30:11.063Z,102621.77
2018-06-27T12:32:38.793Z,102624.78
2018-06-27T12:35:06.673Z,102630.72
2018-06-27T12:37:34.572Z,102618.08
2018-06-27T12:40:02.177Z,102624.62
2018-06-27T12:42:30.025Z,102624.48
2018-06-27T12:44:58.065Z,102621.44
2018-06-27T12:47:25.721Z,102607.23
2018-06-27T12:49:54.532Z,102615.30
2018-06-27T12:52:22.248Z,102610.66
2018-06-27T12:54:53.523Z,102608.38
2018-06-27T12:57:22.435Z,102609.52
2018-06-27T12:59:50.178Z,102609.87
2018-06-27T13:02:17.810Z,102604.34
2018-06-27T13:04:45.894Z,102602.91
2018-06-27T13:07:13.589Z,102601.30
2018-06-27T13:09:41.213Z,102591.09
2018-06-27T13:12:09.389Z,102594.78
2018-06-27T13:14:37.046Z,102590.09
2018-06-27T13:17:04.739Z,102584.28
2018-06-27T13:19:33.164Z,102590.55
2018-06-27T13:22:00.831Z,102586.84
2018-06-27T13:24:28.470Z,102512.47
2018-06-27T13:26:56.579Z,102586.84
2018-06-27T13:29:24.248Z,102594.42
2018-06-27T13:31:51.915Z,102578.59
2018-06-27T13:34:19.781Z,102584.16
2018-06-27T13:36:47.626Z,102587.97
2018-06-27T13:39:15.207Z,102585.58
2018-06-27T13:41:43.314Z,102569.20
2018-06-27T13:44:11.064Z,102580.92
2018-06-27T13:46:38.947Z,102578.95
2018-06-27T13:49:06.954Z,102568.58
2018-06-27T13:51:34.569Z,102561.80
2018-06-27T13:54:02.212Z,102562.79
2018-06-27T13:56:30.342Z,102561.25
2018-06-27T13:58:57.963Z,102559.82
2018-06-27T14:01:25.626Z,102561.53
2018-06-27T14:03:53.615Z,102566.59
2018-06-27T14:06:21.278Z,102564.31
2018-06-27T14:08:48.812Z,102565.00
2018-06-27T14:11:16.852Z,102569.64
2018-06-27T14:13:44.490Z,102549.52
2018-06-27T14:16:12.086Z,102549.67
2018-06-27T14:18:40.047Z,102548.87
2018-06-27T14:21:07.726Z,102542.13
2018-06-27T14:23:35.367Z,102541.92
2018-06-27T14:26:04.501Z,102542.59
2018-06-27T14:28:32.192Z,102542.25
2018-06-27T14:30:59.848Z,102540.33
2018-06-27T14:33:27.958Z,102540.50
2018-06-27T14:35:55.765Z,102532.98
2018-06-27T14:38:23.404Z,102535.10
2018-06-27T14:40:51.515Z,102549.44
2018-06-27T14:43:19.147Z,102554.45
2018-06-27T14:45:46.881Z,102548.16
2018-06-27T14:48:15.566Z,102552.63
2018-06-27T14:50:43.414Z,102548.06
2018-06-27T14:53:11.909Z,102554.00
2018-06-27T14:55:39.854Z,102548.81
2018-06-27T15:00:42.055Z,102545.86
2018-06-27T15:03:09.692Z,102545.02
2018-06-27T15:05:37.362Z,102543.67
2018-06-27T15:08:05.328Z,102547.40
2018-06-27T15:10:33.101Z,102547.68
2018-06-27T15:13:00.796Z,102547.80
2018-06-27T15:15:28.838Z,102546.08
2018-06-27T15:17:56.467Z,102540.28
2018-06-27T15:20:24.178Z,102544.84
2018-06-27T15:22:52.158Z,102541.64
2018-06-27T15:25:19.916Z,102540.02
2018-06-27T15:27:47.556Z,102538.17
2018-06-27T15:30:15.429Z,102538.05
2018-06-27T15:32:43.295Z,102531.47
2018-06-27T15:35:11.113Z,102532.57
2018-06-27T15:37:39.030Z,102539.02
2018-06-27T15:40:06.774Z,102530.10
2018-06-27T15:42:34.433Z,102535.81
2018-06-27T15:45:02.845Z,102534.42
2018-06-27T15:47:30.531Z,102528.86
2018-06-27T15:49:58.501Z,102525.72
2018-06-27T15:52:26.368Z,102521.86
2018-06-27T15:54:54.035Z,102508.83
2018-06-27T15:57:21.683Z,102513.00
2018-06-27T15:59:52.490Z,102513.44
2018-06-27T16:02:20.178Z,102523.20
2018-06-27T16:04:48.106Z,102516.50
2018-06-27T16:07:15.922Z,102519.58
2018-06-27T16:09:43.569Z,102516.84
2018-06-27T16:12:11.206Z,102507.75
2018-06-27T16:14:39.237Z,102512.71
2018-06-27T16:17:09.009Z,102519.05
2018-06-27T16:19:36.538Z,102510.34
2018-06-27T16:22:04.715Z,102509.98
2018-06-27T16:24:32.391Z,102512.23
2018-06-27T16:27:00.047Z,102506.44
2018-06-27T16:29:27.950Z,102507.11
2018-06-27T16:31:55.563Z,102506.11
2018-06-27T16:34:23.351Z,102509.27
2018-06-27T16:36:51.451Z,102497.93
2018-06-27T16:39:19.126Z,102497.58
2018-06-27T16:41:46.786Z,102494.37
2018-06-27T16:44:14.624Z,102505.03
2018-06-27T16:46:42.229Z,102501.21
2018-06-27T16:49:11.332Z,102504.81
2018-06-27T16:51:40.035Z,102501.11
2018-06-27T16:54:07.827Z,102505.72
2018-06-27T16:56:36.355Z,102493.23
2018-06-27T16:59:04.337Z,102493.12
2018-06-27T17:01:32.292Z,102495.33
2018-06-27T17:03:59.734Z,102488.19
2018-06-27T17:06:27.803Z,102483.48
2018-06-27T17:08:56.108Z,102482.51
2018-06-27T17:11:23.793Z,102473.23
2018-06-27T17:13:52.677Z,102476.57
2018-06-27T17:16:20.308Z,102474.98
2018-06-27T17:18:48.060Z,102477.83
2018-06-27T17:21:16.042Z,102472.02
2018-06-27T17:23:43.728Z,102467.83
2018-06-27T17:26:12.262Z,102471.41
2018-06-27T17:28:40.067Z,102468.80
2018-06-27T17:31:07.811Z,102462.62
2018-06-27T17:33:35.469Z,102466.60
2018-06-27T17:36:03.439Z,102463.77
2018-06-27T17:38:31.157Z,102463.14
2018-06-27T17:40:58.832Z,102465.98
2018-06-27T17:43:26.660Z,102463.52
2018-06-27T17:45:54.373Z,102467.81
2018-06-27T17:48:22.056Z,102456.79
2018-06-27T17:50:50.020Z,102462.98
2018-06-27T17:53:17.939Z,102463.59
2018-06-27T17:55:45.641Z,102461.61
2018-06-27T17:58:13.517Z,102467.41
2018-06-27T18:00:41.299Z,102461.38
2018-06-27T18:03:09.012Z,102464.83
2018-06-27T18:05:36.981Z,102460.75
2018-06-27T18:08:04.728Z,102469.36
2018-06-27T18:10:32.431Z,102473.55
2018-06-27T18:13:00.430Z,102468.73
2018-06-27T18:15:28.147Z,102469.92
2018-06-27T18:17:55.838Z,102467.05
2018-06-27T18:20:23.667Z,102466.38
2018-06-27T18:22:51.311Z,102477.34
2018-06-27T18:25:18.911Z,102474.45
2018-06-27T18:27:46.729Z,102483.78
2018-06-27T18:30:14.373Z,102476.45
2018-06-27T18:32:41.999Z,102481.10
2018-06-27T18:35:09.790Z,102480.44
2018-06-27T18:37:37.515Z,102488.55
2018-06-27T18:40:05.707Z,102492.31
2018-06-27T18:42:33.688Z,102492.28
2018-06-27T18:45:01.341Z,102494.06
2018-06-27T18:47:29.100Z,102487.34
2018-06-27T18:50:00.187Z,102483.34
2018-06-27T18:52:27.860Z,102481.09
2018-06-27T18:54:55.652Z,102494.09
2018-06-27T18:57:23.482Z,102489.48
2018-06-27T18:59:51.083Z,102484.73
2018-06-27T19:02:18.775Z,102482.20
2018-06-27T19:04:46.740Z,102476.72
2018-06-27T19:07:14.384Z,102473.09
2018-06-27T19:09:42.015Z,102477.00
2018-06-27T19:12:10.031Z,102483.33
2018-06-27T19:14:37.692Z,102479.34
2018-06-27T19:17:05.343Z,102375.71
2018-06-27T19:19:33.131Z,102486.64
2018-06-27T19:22:00.739Z,102485.82
2018-06-27T19:24:28.922Z,102485.08
2018-06-27T19:26:56.717Z,102482.95
2018-06-27T19:29:24.378Z,102494.84
2018-06-27T19:31:52.069Z,102486.56
2018-06-27T19:34:20.151Z,102490.56
2018-06-27T19:36:47.828Z,102494.06
2018-06-27T19:39:15.452Z,102488.59
2018-06-27T19:41:43.286Z,102488.41
2018-06-27T19:44:11.031Z,102493.44
2018-06-27T19:46:38.758Z,102495.98
2018-06-27T19:49:06.701Z,102491.63
2018-06-27T19:51:34.367Z,102491.47
2018-06-27T19:54:02.054Z,102492.15
2018-06-27T19:56:29.964Z,102491.88
2018-06-27T19:58:57.625Z,102496.98
2018-06-27T20:01:25.339Z,102495.37
2018-06-27T20:03:53.267Z,102490.53
2018-06-27T20:06:20.921Z,102493.84
2018-06-27T20:08:48.626Z,102494.05
2018-06-27T20:11:16.738Z,102496.45
2018-06-27T20:13:44.406Z,102492.61
2018-06-27T20:16:12.644Z,102494.91
2018-06-27T20:18:40.651Z,102490.17
2018-06-27T20:21:08.982Z,102488.66
2018-06-27T20:23:37.405Z,102491.93
2018-06-27T20:26:05.565Z,102487.70
2018-06-27T20:28:33.279Z,102487.40
2018-06-27T20:31:00.949Z,102491.19
2018-06-27T20:33:28.766Z,102485.10
2018-06-27T20:35:56.576Z,102493.41
2018-06-27T20:38:24.174Z,102488.20
2018-06-27T20:40:52.054Z,102494.22
2018-06-27T20:43:19.813Z,102479.15
2018-06-27T20:45:47.629Z,102386.20
2018-06-27T20:48:15.445Z,102478.77
2018-06-27T20:50:43.075Z,102479.95
2018-06-27T20:53:10.740Z,102481.49
2018-06-27T20:55:38.784Z,102475.91
2018-06-27T20:58:06.814Z,102471.55
2018-06-27T21:00:34.434Z,102477.66
2018-06-27T21:03:02.316Z,102474.66
2018-06-27T21:05:29.951Z,102467.63
2018-06-27T21:07:57.680Z,102472.34
2018-06-27T21:10:25.547Z,102475.81
2018-06-27T21:12:54.050Z,102473.91
2018-06-27T21:15:21.702Z,102473.59
2018-06-27T21:17:49.783Z,102473.52
2018-06-27T21:20:17.517Z,102471.06
2018-06-27T21:22:45.152Z,102470.01
2018-06-27T21:25:13.120Z,102463.92
2018-06-27T21:27:40.785Z,102467.28
2018-06-27T21:30:08.887Z,102465.84
2018-06-27T21:32:36.790Z,102459.77
2018-06-27T21:35:04.625Z,102461.70
2018-06-27T21:37:32.288Z,102464.09
2018-06-27T21:40:00.466Z,102456.19
2018-06-27T21:42:28.073Z,102462.19
2018-06-27T21:44:55.764Z,102457.45
2018-06-27T21:47:23.773Z,102461.69
2018-06-27T21:49:52.188Z,102461.41
2018-06-27T21:52:19.867Z,102457.14
2018-06-27T21:54:47.869Z,102459.55
2018-06-27T21:57:15.498Z,102462.44
2018-06-27T21:59:43.204Z,102456.34
2018-06-27T22:02:11.141Z,102466.86
2018-06-27T22:04:38.751Z,102458.95
2018-06-27T22:07:06.397Z,102458.64
2018-06-27T22:09:34.572Z,102466.45
2018-06-27T22:12:02.284Z,102466.34
2018-06-27T22:14:29.973Z,102455.80
2018-06-27T22:16:57.898Z,102452.53
2018-06-27T22:19:25.480Z,102449.61
2018-06-27T22:21:53.223Z,102449.41
2018-06-27T22:24:21.121Z,102456.34
2018-06-27T22:26:48.768Z,102451.60
2018-06-27T22:29:16.428Z,102440.50
2018-06-27T22:31:44.596Z,102425.23
2018-06-27T22:34:12.530Z,102448.48
2018-06-27T22:36:40.195Z,102444.11
2018-06-27T22:39:09.194Z,102448.81
2018-06-27T22:41:36.883Z,102440.05
2018-06-27T22:44:04.632Z,102449.16
2018-06-27T22:46:32.666Z,102444.45
2018-06-27T22:49:00.330Z,102442.79
2018-06-27T22:51:27.924Z,102445.20
2018-06-27T22:53:56.001Z,102448.07
2018-06-27T22:56:23.624Z,102454.52
2018-06-27T22:58:51.282Z,102456.04
2018-06-27T23:01:19.542Z,102448.98
2018-06-27T23:03:47.249Z,102448.31
2018-06-27T23:06:14.943Z,102448.87
2018-06-27T23:08:43.021Z,102455.78
2018-06-27T23:11:10.659Z,102416.89
2018-06-27T23:13:38.360Z,102441.41
2018-06-27T23:16:06.463Z,102437.91
2018-06-27T23:18:34.098Z,102439.81
2018-06-27T23:21:01.801Z,102435.02
2018-06-27T23:23:29.867Z,102438.82
2018-06-27T23:25:57.549Z,102431.33
2018-06-27T23:28:25.248Z,102435.54
2018-06-27T23:30:53.217Z,102430.70
2018-06-27T23:33:20.823Z,102425.41
2018-06-27T23:35:48.442Z,102424.23
2018-06-27T23:38:16.288Z,102415.53
2018-06-27T23:40:43.979Z,102425.31
2018-06-27T23:43:11.607Z,102421.53
2018-06-27T23:45:39.558Z,102416.31
2018-06-27T23:48:07.314Z,102415.66
2018-06-27T23:50:34.996Z,102411.33
2018-06-27T23:53:02.990Z,102406.58
2018-06-27T23:55:30.581Z,102407.72
2018-06-27T23:57:58.194Z,102413.27
